createdAt,value
2022-08-18T00:01:06.762Z,21.66
2022-08-18T00:04:21.772Z,21.68
2022-08-18T00:07:33.814Z,21.69
2022-08-18T00:10:36.370Z,21.67
2022-08-18T00:13:38.538Z,21.70
2022-08-18T00:16:41.030Z,21.65
2022-08-18T00:19:47.451Z,21.71
2022-08-18T00:22:52.224Z,21.76
2022-08-18T00:25:55.473Z,21.81
2022-08-18T00:28:57.896Z,21.87
2022-08-18T00:32:00.141Z,21.91
2022-08-18T00:35:13.742Z,21.95
2022-08-18T00:38:23.323Z,21.94
2022-08-18T00:41:28.651Z,21.98
2022-08-18T00:44:30.751Z,22.02
2022-08-18T00:47:42.507Z,22.03
2022-08-18T00:51:05.562Z,22.01
2022-08-18T00:54:15.333Z,22.02
2022-08-18T00:57:21.399Z,22.03
2022-08-18T01:00:24.132Z,21.99
2022-08-18T01:03:29.011Z,21.97
2022-08-18T01:06:44.399Z,21.98
2022-08-18T01:09:49.091Z,22.00
2022-08-18T01:12:56.845Z,22.03
2022-08-18T01:15:59.934Z,22.02
2022-08-18T01:19:21.232Z,21.99
2022-08-18T01:22:27.406Z,22.00
2022-08-18T01:25:50.522Z,21.98
2022-08-18T01:28:53.970Z,21.98
2022-08-18T01:31:56.827Z,22.02
2022-08-18T01:34:59.621Z,22.04
2022-08-18T01:38:02.145Z,22.03
2022-08-18T01:41:27.176Z,22.03
2022-08-18T01:44:27.331Z,22.01
2022-08-18T01:47:29.499Z,22.01
2022-08-18T01:50:49.932Z,22.02
2022-08-18T01:53:52.140Z,21.99
2022-08-18T01:56:54.898Z,22.00
2022-08-18T02:00:00.906Z,21.95
2022-08-18T02:03:08.661Z,21.94
2022-08-18T02:06:14.721Z,21.94
2022-08-18T02:09:17.198Z,21.95
2022-08-18T02:12:27.061Z,21.95
2022-08-18T02:15:29.419Z,21.97
2022-08-18T02:18:47.593Z,21.97
2022-08-18T02:21:54.190Z,21.96
2022-08-18T02:24:59.832Z,21.94
2022-08-18T02:28:01.970Z,21.92
2022-08-18T02:31:14.308Z,21.91
2022-08-18T02:34:19.490Z,21.91
2022-08-18T02:37:22.941Z,21.92
2022-08-18T02:40:25.129Z,21.92
2022-08-18T02:43:28.603Z,21.89
2022-08-18T02:46:31.328Z,21.84
2022-08-18T02:49:33.984Z,21.84
2022-08-18T02:52:36.225Z,21.78
2022-08-18T02:55:39.703Z,21.73
2022-08-18T02:58:42.392Z,21.70
2022-08-18T03:01:47.955Z,21.46
2022-08-18T03:04:51.305Z,21.44
2022-08-18T03:07:54.052Z,21.41
2022-08-18T03:10:56.275Z,21.37
2022-08-18T03:14:02.075Z,21.34
2022-08-18T03:17:06.190Z,21.34
2022-08-18T03:20:08.928Z,21.36
2022-08-18T03:23:12.370Z,21.33
2022-08-18T03:26:16.233Z,21.32
2022-08-18T03:29:20.527Z,21.36
2022-08-18T03:32:23.106Z,21.39
2022-08-18T03:35:25.786Z,21.38
2022-08-18T03:38:28.220Z,21.38
2022-08-18T03:41:57.309Z,21.40
2022-08-18T03:44:52.901Z,21.39
2022-08-18T03:47:55.174Z,21.39
2022-08-18T03:51:13.435Z,21.40
2022-08-18T03:54:17.777Z,21.47
2022-08-18T03:57:20.203Z,21.55
2022-08-18T04:00:23.572Z,21.69
2022-08-18T04:03:28.158Z,21.80
2022-08-18T04:06:41.285Z,21.86
2022-08-18T04:09:44.267Z,21.94
2022-08-18T04:12:46.642Z,22.00
2022-08-18T04:15:49.046Z,22.10
2022-08-18T04:18:51.499Z,22.19
2022-08-18T04:21:54.824Z,22.25
2022-08-18T04:24:58.064Z,22.36
2022-08-18T04:28:02.341Z,22.42
2022-08-18T04:31:13.168Z,22.61
2022-08-18T04:34:16.347Z,22.64
2022-08-18T04:37:18.717Z,22.78
2022-08-18T04:40:24.995Z,22.91
2022-08-18T04:43:27.376Z,23.00
2022-08-18T04:46:30.941Z,23.17
2022-08-18T04:49:33.976Z,23.21
2022-08-18T04:52:54.903Z,23.44
2022-08-18T04:55:57.057Z,23.57
2022-08-18T04:59:06.627Z,23.76
2022-08-18T05:02:12.768Z,23.87
2022-08-18T05:05:17.190Z,24.39
2022-08-18T05:08:19.528Z,26.38
2022-08-18T05:11:24.429Z,28.60
2022-08-18T05:14:26.576Z,30.78
2022-08-18T05:17:30.363Z,32.43
2022-08-18T05:20:33.265Z,34.17
2022-08-18T05:23:36.171Z,34.85
2022-08-18T05:26:38.409Z,35.52
2022-08-18T05:29:42.020Z,36.08
2022-08-18T05:32:50.460Z,36.79
2022-08-18T05:36:03.441Z,37.12
2022-08-18T05:39:15.875Z,37.71
2022-08-18T05:42:21.846Z,38.64
2022-08-18T05:45:24.419Z,38.17
2022-08-18T05:48:26.955Z,38.87
2022-08-18T05:51:34.514Z,38.73
2022-08-18T05:55:01.731Z,38.37
2022-08-18T05:58:18.161Z,39.09
2022-08-18T06:01:33.463Z,39.64
2022-08-18T06:04:43.895Z,39.20
2022-08-18T06:08:12.453Z,39.85
2022-08-18T06:11:17.364Z,40.20
2022-08-18T06:14:25.410Z,40.47
2022-08-18T06:17:43.878Z,40.25
2022-08-18T06:21:23.533Z,40.18
2022-08-18T06:24:41.519Z,40.45
2022-08-18T06:27:59.666Z,40.98
2022-08-18T06:31:29.517Z,40.92
2022-08-18T06:34:54.682Z,40.69
2022-08-18T06:38:39.999Z,40.33
2022-08-18T06:41:45.345Z,40.29
2022-08-18T06:44:52.919Z,40.00
2022-08-18T06:48:03.276Z,40.48
2022-08-18T06:51:08.355Z,41.09
2022-08-18T06:54:19.786Z,41.03
2022-08-18T06:57:38.284Z,41.98
2022-08-18T07:01:02.278Z,41.39
2022-08-18T07:04:04.823Z,41.34
2022-08-18T07:07:39.426Z,41.62
2022-08-18T07:10:46.217Z,42.00
2022-08-18T07:14:16.534Z,42.86
2022-08-18T07:17:51.488Z,42.21
2022-08-18T07:21:02.738Z,42.41
2022-08-18T07:24:24.414Z,42.50
2022-08-18T07:27:49.148Z,42.94
2022-08-18T07:31:15.489Z,42.54
2022-08-18T07:34:38.397Z,41.62
2022-08-18T07:38:00.534Z,41.38
2022-08-18T07:41:33.089Z,41.10
2022-08-18T07:44:59.441Z,41.55
2022-08-18T07:48:37.232Z,41.00
2022-08-18T07:52:36.420Z,40.51
2022-08-18T07:55:36.086Z,38.97
2022-08-18T07:58:50.931Z,37.69
2022-08-18T08:02:36.911Z,36.84
2022-08-18T08:06:05.289Z,35.71
2022-08-18T08:09:22.625Z,35.30
2022-08-18T08:12:41.202Z,34.64
2022-08-18T08:16:01.169Z,34.34
2022-08-18T08:19:12.514Z,33.73
2022-08-18T08:22:39.019Z,33.26
2022-08-18T08:26:36.454Z,32.95
2022-08-18T08:30:03.202Z,32.85
2022-08-18T08:33:35.042Z,32.98
2022-08-18T08:36:40.885Z,33.02
2022-08-18T08:39:55.302Z,32.94
2022-08-18T08:43:03.375Z,33.00
2022-08-18T08:46:21.079Z,32.96
2022-08-18T08:49:45.198Z,33.08
2022-08-18T08:52:57.148Z,33.21
2022-08-18T08:56:06.715Z,33.16
2022-08-18T08:59:16.092Z,33.37
2022-08-18T09:02:51.853Z,33.25
2022-08-18T09:06:09.639Z,33.00
2022-08-18T09:09:20.470Z,33.05
2022-08-18T09:12:44.783Z,33.01
2022-08-18T09:16:12.320Z,32.76
2022-08-18T09:19:45.623Z,32.98
2022-08-18T09:22:52.077Z,33.04
2022-08-18T09:25:58.458Z,33.18
2022-08-18T09:29:14.239Z,33.32
2022-08-18T09:32:19.930Z,33.25
2022-08-18T09:35:45.377Z,33.44
2022-08-18T09:39:39.167Z,33.27
2022-08-18T09:42:50.571Z,33.17
2022-08-18T09:45:59.615Z,33.18
2022-08-18T09:49:23.824Z,33.24
2022-08-18T09:52:37.411Z,33.36
2022-08-18T09:55:52.108Z,33.26
2022-08-18T09:58:58.955Z,33.18
2022-08-18T10:02:24.126Z,33.42
2022-08-18T10:05:31.414Z,33.66
2022-08-18T10:09:17.691Z,33.57
2022-08-18T10:12:51.552Z,33.79
2022-08-18T10:16:10.395Z,33.86
2022-08-18T10:19:28.004Z,33.78
2022-08-18T10:22:48.871Z,33.65
2022-08-18T10:25:52.878Z,33.83
2022-08-18T10:28:57.280Z,34.01
2022-08-18T10:31:59.878Z,34.04
2022-08-18T10:35:02.283Z,34.09
2022-08-18T10:38:19.289Z,34.21
2022-08-18T10:41:30.181Z,34.25
2022-08-18T10:44:41.219Z,34.11
2022-08-18T10:47:45.129Z,34.38
2022-08-18T10:51:15.361Z,34.49
2022-08-18T10:54:58.839Z,34.47
2022-08-18T10:58:12.854Z,34.57
2022-08-18T11:01:26.152Z,34.88
2022-08-18T11:04:46.853Z,34.96
2022-08-18T11:11:40.753Z,34.95
2022-08-18T11:15:22.059Z,34.96
2022-08-18T11:22:02.530Z,34.96
2022-08-18T11:25:32.589Z,34.91
2022-08-18T11:28:38.966Z,34.72
2022-08-18T11:31:53.621Z,34.68
2022-08-18T11:35:33.502Z,34.81
2022-08-18T11:38:39.282Z,34.97
2022-08-18T11:41:48.802Z,35.06
2022-08-18T11:45:01.855Z,35.30
2022-08-18T11:48:46.352Z,35.30
2022-08-18T11:52:15.371Z,35.20
2022-08-18T11:55:33.841Z,35.34
2022-08-18T11:59:04.251Z,35.34
2022-08-18T12:02:09.105Z,35.20
2022-08-18T12:05:13.556Z,35.23
2022-08-18T12:11:55.899Z,35.14
2022-08-18T12:15:10.510Z,35.16
2022-08-18T12:18:28.891Z,35.28
2022-08-18T12:21:32.355Z,35.22
2022-08-18T12:24:39.089Z,35.36
2022-08-18T12:27:41.663Z,35.25
2022-08-18T12:30:46.876Z,35.40
2022-08-18T12:34:01.045Z,35.29
2022-08-18T12:37:10.296Z,35.29
2022-08-18T12:40:27.257Z,35.25
2022-08-18T12:43:32.114Z,35.52
2022-08-18T12:46:34.875Z,35.65
2022-08-18T12:49:37.588Z,35.59
2022-08-18T12:52:39.971Z,35.41
2022-08-18T12:55:46.613Z,35.58
2022-08-18T12:58:53.739Z,35.46
2022-08-18T13:01:58.433Z,35.49
2022-08-18T13:05:01.908Z,35.47
2022-08-18T13:08:30.143Z,35.47
2022-08-18T13:11:35.862Z,35.44
2022-08-18T13:14:39.511Z,35.42
2022-08-18T13:17:45.773Z,35.45
2022-08-18T13:20:51.389Z,35.58
2022-08-18T13:23:54.768Z,35.29
2022-08-18T13:26:57.333Z,35.18
2022-08-18T13:29:59.623Z,35.13
2022-08-18T13:33:05.757Z,35.17
2022-08-18T13:36:27.262Z,35.25
2022-08-18T13:39:34.112Z,35.21
2022-08-18T13:42:50.979Z,35.20
2022-08-18T13:45:55.828Z,35.21
2022-08-18T13:49:03.126Z,35.29
2022-08-18T13:52:12.137Z,35.35
2022-08-18T13:55:29.177Z,35.31
2022-08-18T13:58:31.795Z,35.26
2022-08-18T14:01:44.723Z,35.29
2022-08-18T14:04:56.008Z,35.15
2022-08-18T14:07:59.014Z,35.15
2022-08-18T14:11:03.484Z,35.26
2022-08-18T14:14:06.014Z,35.04
2022-08-18T14:17:08.465Z,35.02
2022-08-18T14:20:29.669Z,35.04
2022-08-18T14:23:53.112Z,34.94
2022-08-18T14:26:55.584Z,34.84
2022-08-18T14:29:58.772Z,34.74
2022-08-18T14:33:06.561Z,34.56
2022-08-18T14:36:14.999Z,34.62
2022-08-18T14:39:17.588Z,34.56
2022-08-18T14:42:21.433Z,34.57
2022-08-18T14:45:48.896Z,34.57
2022-08-18T14:48:51.859Z,34.55
2022-08-18T14:51:54.613Z,34.63
2022-08-18T14:54:59.179Z,34.75
2022-08-18T14:58:01.447Z,34.61
2022-08-18T15:01:08.512Z,34.61
2022-08-18T15:04:19.136Z,34.49
2022-08-18T15:07:23.805Z,34.48
2022-08-18T15:10:28.124Z,34.41
2022-08-18T15:13:32.112Z,34.39
2022-08-18T15:16:34.980Z,34.33
2022-08-18T15:20:00.165Z,34.33
2022-08-18T15:23:24.800Z,34.20
2022-08-18T15:26:32.424Z,34.12
2022-08-18T15:29:41.408Z,34.26
2022-08-18T15:32:45.477Z,34.14
2022-08-18T15:35:50.540Z,34.00
2022-08-18T15:38:53.878Z,34.03
2022-08-18T15:41:58.066Z,33.91
2022-08-18T15:45:11.894Z,33.91
2022-08-18T15:48:15.888Z,33.83
2022-08-18T15:51:18.616Z,33.68
2022-08-18T15:54:22.307Z,33.78
2022-08-18T15:57:39.365Z,33.73
2022-08-18T16:00:53.105Z,33.62
2022-08-18T16:03:56.243Z,33.50
2022-08-18T16:06:59.118Z,33.35
2022-08-18T16:10:02.743Z,33.23
2022-08-18T16:13:06.007Z,33.10
2022-08-18T16:16:14.420Z,32.99
2022-08-18T16:19:31.651Z,32.85
2022-08-18T16:22:39.396Z,32.72
2022-08-18T16:25:43.463Z,32.62
2022-08-18T16:28:47.631Z,32.57
2022-08-18T16:31:51.066Z,32.43
2022-08-18T16:34:53.801Z,32.30
2022-08-18T16:37:56.430Z,32.20
2022-08-18T16:41:11.302Z,32.09
2022-08-18T16:44:16.952Z,31.95
2022-08-18T16:47:19.440Z,31.78
2022-08-18T16:50:23.447Z,31.63
2022-08-18T16:53:25.999Z,31.49
2022-08-18T16:56:42.311Z,31.35
2022-08-18T17:00:03.286Z,31.16
2022-08-18T17:03:25.333Z,31.03
2022-08-18T17:06:28.632Z,30.82
2022-08-18T17:09:31.659Z,30.68
2022-08-18T17:12:34.186Z,30.55
2022-08-18T17:15:36.423Z,30.42
2022-08-18T17:18:40.279Z,30.25
2022-08-18T17:21:43.099Z,30.14
2022-08-18T17:24:49.790Z,30.04
2022-08-18T17:27:53.434Z,29.91
2022-08-18T17:30:55.931Z,29.78
2022-08-18T17:34:11.810Z,29.64
2022-08-18T17:37:18.197Z,29.50
2022-08-18T17:40:30.984Z,29.37
2022-08-18T17:43:38.146Z,29.25
2022-08-18T17:46:40.517Z,29.14
2022-08-18T17:50:27.218Z,29.04
2022-08-18T17:53:27.759Z,28.93
2022-08-18T17:56:40.284Z,28.84
2022-08-18T17:59:53.859Z,28.72
2022-08-18T18:02:56.675Z,28.61
2022-08-18T18:09:30.643Z,28.48
2022-08-18T18:12:35.827Z,28.38
2022-08-18T18:15:41.991Z,28.36
2022-08-18T18:18:45.271Z,28.26
2022-08-18T18:22:02.555Z,28.17
2022-08-18T18:25:07.559Z,28.08
2022-08-18T18:28:27.982Z,27.98
2022-08-18T18:31:31.464Z,27.89
2022-08-18T18:34:39.723Z,27.80
2022-08-18T18:37:48.111Z,27.72
2022-08-18T18:40:57.025Z,27.65
2022-08-18T18:44:09.490Z,27.52
2022-08-18T18:47:40.065Z,27.48
2022-08-18T18:51:10.383Z,27.47
2022-08-18T18:54:49.776Z,27.31
2022-08-18T18:58:14.048Z,27.22
2022-08-18T19:01:38.983Z,27.13
2022-08-18T19:04:50.683Z,27.00
2022-08-18T19:08:21.244Z,26.92
2022-08-18T19:11:33.214Z,26.80
2022-08-18T19:14:41.026Z,26.84
2022-08-18T19:18:04.473Z,26.72
2022-08-18T19:22:02.142Z,26.67
2022-08-18T19:24:55.852Z,26.63
2022-08-18T19:28:15.525Z,26.62
2022-08-18T19:31:23.762Z,26.61
2022-08-18T19:34:33.071Z,26.61
2022-08-18T19:38:06.921Z,26.64
2022-08-18T19:41:40.242Z,26.64
2022-08-18T19:45:17.521Z,26.61
2022-08-18T19:48:40.559Z,26.62
2022-08-18T19:51:46.364Z,26.65
2022-08-18T19:55:08.383Z,26.76
2022-08-18T19:58:58.876Z,26.83
2022-08-18T20:02:19.353Z,26.91
2022-08-18T20:05:43.777Z,27.00
2022-08-18T20:09:13.772Z,27.09
2022-08-18T20:12:34.711Z,27.11
2022-08-18T20:15:58.991Z,27.15
2022-08-18T20:19:02.241Z,27.18
2022-08-18T20:22:21.892Z,27.11
2022-08-18T20:25:33.187Z,27.20
2022-08-18T20:28:39.135Z,27.14
2022-08-18T20:31:53.332Z,27.04
2022-08-18T20:35:25.361Z,27.02
2022-08-18T20:38:35.557Z,27.07
2022-08-18T20:41:47.175Z,27.03
2022-08-18T20:44:49.652Z,27.07
2022-08-18T20:48:05.811Z,27.02
2022-08-18T20:51:15.023Z,26.99
2022-08-18T20:54:57.690Z,26.97
2022-08-18T20:58:10.592Z,26.94
2022-08-18T21:01:14.098Z,26.88
2022-08-18T21:04:16.604Z,26.81
2022-08-18T21:07:36.724Z,26.75
2022-08-18T21:10:51.232Z,26.72
2022-08-18T21:13:56.465Z,26.66
2022-08-18T21:16:59.381Z,26.67
2022-08-18T21:20:08.815Z,26.67
2022-08-18T21:23:13.739Z,26.76
2022-08-18T21:26:16.318Z,26.71
2022-08-18T21:29:20.130Z,26.73
2022-08-18T21:32:31.475Z,26.62
2022-08-18T21:35:38.041Z,26.60
2022-08-18T21:39:05.671Z,26.51
2022-08-18T21:42:18.383Z,26.49
2022-08-18T21:45:25.599Z,26.51
2022-08-18T21:48:28.739Z,26.40
2022-08-18T21:51:45.961Z,26.33
2022-08-18T21:54:48.952Z,26.28
2022-08-18T21:58:02.985Z,26.27
2022-08-18T22:01:25.125Z,26.27
2022-08-18T22:04:33.527Z,26.32
2022-08-18T22:07:35.830Z,26.40
2022-08-18T22:11:00.934Z,26.40
2022-08-18T22:14:16.301Z,26.36
2022-08-18T22:17:30.186Z,26.40
2022-08-18T22:20:50.986Z,26.30
2022-08-18T22:24:12.162Z,26.27
2022-08-18T22:27:21.430Z,26.21
2022-08-18T22:30:23.932Z,26.16
2022-08-18T22:33:26.144Z,26.13
2022-08-18T22:36:34.431Z,25.98
2022-08-18T22:39:39.591Z,25.95
2022-08-18T22:42:42.236Z,25.91
2022-08-18T22:45:44.465Z,25.89
2022-08-18T22:48:46.924Z,25.85
2022-08-18T22:51:52.307Z,25.80
2022-08-18T22:54:55.072Z,25.77
2022-08-18T22:57:57.321Z,25.75
2022-08-18T23:01:05.722Z,25.72
2022-08-18T23:04:08.460Z,25.66
2022-08-18T23:07:11.795Z,25.60
2022-08-18T23:10:16.671Z,25.56
2022-08-18T23:13:19.196Z,25.53
2022-08-18T23:16:31.618Z,25.47
2022-08-18T23:19:34.762Z,25.42
2022-08-18T23:22:36.934Z,25.39
2022-08-18T23:25:39.553Z,25.32
2022-08-18T23:28:48.311Z,25.28
2022-08-18T23:31:55.024Z,25.26
2022-08-18T23:34:57.180Z,25.24
2022-08-18T23:38:00.036Z,25.20
2022-08-18T23:41:02.180Z,25.21
2022-08-18T23:44:06.557Z,25.18
2022-08-18T23:47:08.970Z,25.13
2022-08-18T23:50:11.824Z,25.08
2022-08-18T23:53:15.501Z,25.09
2022-08-18T23:56:18.003Z,25.09
2022-08-18T23:59:24.187Z,25.04
